Time;durP1;ratioP1;P1;durP2;ratioP2;P2;SDS_P1;SDS_P2;PMS_P1;PMS_P2;Temp;Humidity;BMP_temperature;BMP_pressure;BME280_temperature;BME280_humidity;BME280_pressure;Samples;Min_cycle;Max_cycle;Signal;HPM_P1;HPM_P2
2020/12/19 00:02:07;;;;;;;;;;;21.60;51.80;;;;;;5053878;28;1959;-66
2020/12/19 00:04:33;;;;;;;;;;;21.60;51.80;;;;;;5053684;28;1305;-66
2020/12/19 00:06:59;;;;;;;;;;;21.60;51.90;;;;;;5053952;28;1342;-66
2020/12/19 00:09:24;;;;;;;;;;;21.60;51.90;;;;;;5053925;28;1347;-66
2020/12/19 00:11:51;;;;;;;;;;;21.60;51.90;;;;;;5054997;28;1158;-66
2020/12/19 00:14:18;;;;;;;;;;;21.60;52.00;;;;;;5054812;28;1000;-66
2020/12/19 00:16:43;;;;;;;;;;;21.60;52.00;;;;;;5055127;28;1276;-66
2020/12/19 00:19:08;;;;;;;;;;;21.50;52.00;;;;;;5057128;28;1309;-66
2020/12/19 00:21:34;;;;;;;;;;;21.50;52.00;;;;;;5059703;28;1902;-66
2020/12/19 00:24:03;;;;;;;;;;;21.50;52.00;;;;;;5053631;28;1333;-66
2020/12/19 00:26:36;;;;;;;;;;;21.50;52.10;;;;;;5053399;28;1289;-67
2020/12/19 00:29:02;;;;;;;;;;;21.50;52.10;;;;;;5051835;28;1241;-66
2020/12/19 00:31:27;;;;;;;;;;;21.50;52.20;;;;;;5053542;28;1361;-66
2020/12/19 00:33:53;;;;;;;;;;;21.50;52.20;;;;;;5054571;28;1660;-66
2020/12/19 00:36:19;;;;;;;;;;;21.40;52.20;;;;;;5054757;28;1299;-67
2020/12/19 00:38:44;;;;;;;;;;;21.50;52.20;;;;;;5053737;28;1245;-66
2020/12/19 00:41:15;;;;;;;;;;;21.40;52.20;;;;;;5055047;28;1905;-66
2020/12/19 00:43:41;;;;;;;;;;;21.50;52.30;;;;;;5053079;28;1299;-66
2020/12/19 00:46:09;;;;;;;;;;;21.40;52.30;;;;;;5052821;28;1375;-66
2020/12/19 00:48:35;;;;;;;;;;;21.40;52.30;;;;;;5054429;28;1269;-66
2020/12/19 00:51:00;;;;;;;;;;;21.40;52.30;;;;;;5068116;28;1194;-66
2020/12/19 00:53:26;;;;;;;;;;;21.40;52.40;;;;;;5053260;28;1115;-66
2020/12/19 00:55:51;;;;;;;;;;;21.40;52.40;;;;;;5059071;28;1416;-66
2020/12/19 00:58:17;;;;;;;;;;;21.40;52.40;;;;;;5053093;28;1287;-66
2020/12/19 01:00:42;;;;;;;;;;;21.40;52.50;;;;;;5053265;28;1955;-66
2020/12/19 01:03:08;;;;;;;;;;;21.40;52.50;;;;;;5053317;28;1382;-66
2020/12/19 01:05:34;;;;;;;;;;;21.40;52.50;;;;;;5053836;28;1365;-66
2020/12/19 01:07:59;;;;;;;;;;;21.40;52.50;;;;;;5054061;28;1327;-66
2020/12/19 01:10:25;;;;;;;;;;;21.30;52.50;;;;;;5054474;28;1421;-66
2020/12/19 01:12:50;;;;;;;;;;;21.30;52.50;;;;;;5052684;28;1284;-66
2020/12/19 01:15:16;;;;;;;;;;;21.30;52.60;;;;;;5053323;28;1327;-66
2020/12/19 01:17:41;;;;;;;;;;;21.30;52.60;;;;;;5052622;28;1343;-66
2020/12/19 01:20:07;;;;;;;;;;;21.30;52.60;;;;;;5059828;28;1322;-66
2020/12/19 01:22:32;;;;;;;;;;;21.30;52.60;;;;;;5053907;28;1922;-66
2020/12/19 01:24:58;;;;;;;;;;;21.30;52.60;;;;;;5049096;28;1277;-66
2020/12/19 01:27:23;;;;;;;;;;;21.30;52.70;;;;;;5053819;28;1384;-66
2020/12/19 01:29:49;;;;;;;;;;;21.30;52.70;;;;;;5053571;28;1309;-66
2020/12/19 01:32:14;;;;;;;;;;;21.30;52.70;;;;;;5053609;28;1349;-66
2020/12/19 01:34:40;;;;;;;;;;;21.30;52.70;;;;;;5052128;28;1323;-66
2020/12/19 01:37:05;;;;;;;;;;;21.30;52.70;;;;;;5053683;28;1343;-66
2020/12/19 01:39:31;;;;;;;;;;;21.20;52.70;;;;;;5052116;28;1189;-66
2020/12/19 01:41:56;;;;;;;;;;;21.20;52.70;;;;;;5051814;28;1973;-66
2020/12/19 01:44:22;;;;;;;;;;;21.20;52.80;;;;;;5051315;28;1338;-66
2020/12/19 01:46:53;;;;;;;;;;;21.20;52.80;;;;;;5053226;28;1371;-66
2020/12/19 01:49:18;;;;;;;;;;;21.20;52.80;;;;;;5057444;28;1240;-66
2020/12/19 01:51:47;;;;;;;;;;;21.20;52.80;;;;;;5061610;28;1294;-67
2020/12/19 01:54:12;;;;;;;;;;;21.20;52.80;;;;;;5051678;28;1284;-67
2020/12/19 01:56:44;;;;;;;;;;;21.20;52.90;;;;;;5058645;28;1135;-67
2020/12/19 01:59:09;;;;;;;;;;;21.20;52.90;;;;;;5053560;28;1386;-66
2020/12/19 02:01:41;;;;;;;;;;;21.20;52.90;;;;;;5051720;28;1946;-66
2020/12/19 02:04:06;;;;;;;;;;;21.20;52.90;;;;;;5051712;28;1313;-66
2020/12/19 02:06:32;;;;;;;;;;;21.20;52.90;;;;;;5052992;28;1075;-66
2020/12/19 02:08:57;;;;;;;;;;;21.20;53.00;;;;;;5051435;28;1350;-66
2020/12/19 02:11:23;;;;;;;;;;;21.10;52.90;;;;;;5052545;28;1282;-66
2020/12/19 02:13:48;;;;;;;;;;;21.10;53.00;;;;;;5051670;28;1349;-66
2020/12/19 02:16:17;;;;;;;;;;;21.10;53.00;;;;;;5051619;28;1315;-66
2020/12/19 02:18:43;;;;;;;;;;;21.10;53.00;;;;;;5051568;28;1330;-66
2020/12/19 02:21:08;;;;;;;;;;;21.10;53.60;;;;;;5058760;28;1898;-66
2020/12/19 02:23:34;;;;;;;;;;;21.10;53.00;;;;;;5051165;28;1396;-66
2020/12/19 02:25:59;;;;;;;;;;;21.10;53.00;;;;;;5051953;28;1336;-66
2020/12/19 02:28:24;;;;;;;;;;;21.10;53.00;;;;;;5052522;28;1359;-66
2020/12/19 02:30:50;;;;;;;;;;;21.10;53.00;;;;;;5052785;28;1349;-66
2020/12/19 02:33:15;;;;;;;;;;;21.20;52.90;;;;;;5052513;28;1306;-66
2020/12/19 02:35:41;;;;;;;;;;;21.20;52.90;;;;;;5052212;28;1317;-66
2020/12/19 02:38:06;;;;;;;;;;;21.20;52.90;;;;;;5051194;28;1354;-66
2020/12/19 02:40:32;;;;;;;;;;;21.20;52.90;;;;;;5051355;28;1283;-66
2020/12/19 02:42:57;;;;;;;;;;;21.20;52.90;;;;;;5052003;28;1969;-67
2020/12/19 02:45:23;;;;;;;;;;;21.20;52.80;;;;;;5052003;28;1320;-66
2020/12/19 02:47:48;;;;;;;;;;;21.20;52.80;;;;;;5052395;28;1396;-66
2020/12/19 02:50:13;;;;;;;;;;;21.20;52.90;;;;;;5064121;28;1272;-66
2020/12/19 02:52:39;;;;;;;;;;;21.20;52.90;;;;;;5053179;28;1182;-66
2020/12/19 02:55:04;;;;;;;;;;;21.20;52.90;;;;;;5055540;28;1330;-66
2020/12/19 02:57:30;;;;;;;;;;;21.20;52.90;;;;;;5053578;28;1394;-66
2020/12/19 02:59:55;;;;;;;;;;;21.20;52.90;;;;;;5052787;28;1324;-66
2020/12/19 03:02:21;;;;;;;;;;;21.20;52.90;;;;;;5050967;28;1906;-66
2020/12/19 03:04:46;;;;;;;;;;;21.20;52.90;;;;;;5051983;28;1289;-65
2020/12/19 03:07:12;;;;;;;;;;;21.20;52.90;;;;;;5050823;28;1303;-66
2020/12/19 03:09:37;;;;;;;;;;;21.10;52.90;;;;;;5051881;28;1416;-66
2020/12/19 03:12:03;;;;;;;;;;;21.10;52.90;;;;;;5051979;28;1441;-66
2020/12/19 03:14:28;;;;;;;;;;;21.10;52.90;;;;;;5050340;28;1712;-66
2020/12/19 03:16:54;;;;;;;;;;;21.10;53.00;;;;;;5050772;28;1170;-66
2020/12/19 03:19:19;;;;;;;;;;;21.10;53.00;;;;;;5054769;28;1396;-66
2020/12/19 03:21:45;;;;;;;;;;;21.10;53.00;;;;;;5054450;28;1902;-66
2020/12/19 03:24:10;;;;;;;;;;;21.10;53.10;;;;;;5050849;28;1952;-65
2020/12/19 03:26:36;;;;;;;;;;;21.10;53.10;;;;;;5051626;28;1283;-66
2020/12/19 03:29:01;;;;;;;;;;;21.10;53.10;;;;;;5052187;28;1302;-66
2020/12/19 03:31:27;;;;;;;;;;;21.10;53.10;;;;;;5050779;28;1326;-66
2020/12/19 03:33:52;;;;;;;;;;;21.10;53.10;;;;;;5052303;28;1373;-66
2020/12/19 03:36:17;;;;;;;;;;;21.10;53.10;;;;;;5050728;28;1287;-66
2020/12/19 03:38:43;;;;;;;;;;;21.00;53.10;;;;;;5051193;28;1371;-66
2020/12/19 03:41:09;;;;;;;;;;;21.00;53.10;;;;;;5050457;28;1910;-66
2020/12/19 03:43:34;;;;;;;;;;;21.00;53.10;;;;;;5050262;28;1362;-66
2020/12/19 03:45:59;;;;;;;;;;;21.00;53.20;;;;;;5051800;28;1106;-66
2020/12/19 03:48:25;;;;;;;;;;;21.00;53.20;;;;;;5051942;28;1275;-66
2020/12/19 03:50:50;;;;;;;;;;;21.00;53.20;;;;;;5063775;28;1216;-67
2020/12/19 03:53:16;;;;;;;;;;;21.00;53.20;;;;;;5050874;28;1323;-66
2020/12/19 03:55:41;;;;;;;;;;;21.00;53.20;;;;;;5058273;28;1316;-66
2020/12/19 03:58:07;;;;;;;;;;;21.00;53.30;;;;;;5040423;28;1264;-66
2020/12/19 04:00:32;;;;;;;;;;;21.00;53.30;;;;;;5069066;28;1369;-67
2020/12/19 04:02:58;;;;;;;;;;;21.00;53.30;;;;;;5071980;28;1954;-66
2020/12/19 04:05:23;;;;;;;;;;;21.00;53.30;;;;;;5073592;28;1268;-67
2020/12/19 04:07:49;;;;;;;;;;;21.00;53.40;;;;;;5073635;28;1354;-66
2020/12/19 04:10:14;;;;;;;;;;;21.00;53.40;;;;;;5075218;28;1359;-66
2020/12/19 04:12:40;;;;;;;;;;;21.00;53.40;;;;;;5073987;28;1397;-66
2020/12/19 04:15:07;;;;;;;;;;;21.00;53.30;;;;;;5075038;28;1301;-66
2020/12/19 04:17:33;;;;;;;;;;;21.00;53.20;;;;;;5074033;28;1643;-67
2020/12/19 04:19:58;;;;;;;;;;;21.10;53.20;;;;;;5070262;28;1310;-66
2020/12/19 04:22:23;;;;;;;;;;;21.20;53.10;;;;;;5054885;28;1949;-65
2020/12/19 04:24:49;;;;;;;;;;;21.30;53.00;;;;;;5052889;28;1469;-66
2020/12/19 04:27:14;;;;;;;;;;;21.30;52.80;;;;;;5054821;28;1361;-66
2020/12/19 04:29:40;;;;;;;;;;;21.40;52.70;;;;;;5053173;28;1307;-66
2020/12/19 04:32:05;;;;;;;;;;;21.50;52.40;;;;;;5055172;28;1301;-66
2020/12/19 04:34:31;;;;;;;;;;;21.60;52.30;;;;;;5054646;28;1359;-66
2020/12/19 04:36:56;;;;;;;;;;;21.70;52.70;;;;;;5054394;28;1339;-66
2020/12/19 04:39:22;;;;;;;;;;;21.80;51.90;;;;;;5054524;28;1322;-66
2020/12/19 04:41:47;;;;;;;;;;;21.90;51.70;;;;;;5053692;28;1902;-66
2020/12/19 04:44:13;;;;;;;;;;;21.90;51.50;;;;;;5054382;28;1314;-66
2020/12/19 04:46:40;;;;;;;;;;;22.00;51.40;;;;;;5053280;28;1245;-66
2020/12/19 04:49:06;;;;;;;;;;;22.00;51.30;;;;;;5055463;28;1329;-67
2020/12/19 04:51:32;;;;;;;;;;;22.10;51.10;;;;;;5064320;28;1283;-67
2020/12/19 04:53:57;;;;;;;;;;;22.20;51.10;;;;;;5050503;28;1330;-66
2020/12/19 04:56:23;;;;;;;;;;;22.20;51.00;;;;;;5065484;28;1094;-67
2020/12/19 04:58:50;;;;;;;;;;;22.30;50.90;;;;;;5053212;28;1303;-66
2020/12/19 05:01:16;;;;;;;;;;;22.30;50.80;;;;;;5053819;28;1898;-67
2020/12/19 05:03:41;;;;;;;;;;;22.30;50.70;;;;;;5052871;28;1278;-67
2020/12/19 05:06:06;;;;;;;;;;;22.30;50.60;;;;;;5052923;28;1311;-66
2020/12/19 05:08:32;;;;;;;;;;;22.40;50.60;;;;;;5052474;28;1371;-67
2020/12/19 05:10:57;;;;;;;;;;;22.40;50.60;;;;;;5052850;28;1199;-66
2020/12/19 05:13:23;;;;;;;;;;;22.40;50.50;;;;;;5054078;28;1465;-66
2020/12/19 05:15:49;;;;;;;;;;;22.50;50.50;;;;;;5053047;28;1324;-65
2020/12/19 05:18:15;;;;;;;;;;;22.50;50.50;;;;;;5052950;28;1293;-67
2020/12/19 05:20:40;;;;;;;;;;;22.50;50.50;;;;;;5059792;28;1115;-67
2020/12/19 05:23:09;;;;;;;;;;;22.50;50.40;;;;;;5052214;28;1906;-67
2020/12/19 05:25:36;;;;;;;;;;;22.50;50.40;;;;;;5053799;28;1222;-67
2020/12/19 05:28:01;;;;;;;;;;;22.50;50.30;;;;;;5052442;28;1391;-67
2020/12/19 05:30:27;;;;;;;;;;;22.60;50.30;;;;;;5053335;28;1123;-66
2020/12/19 05:32:52;;;;;;;;;;;22.60;50.30;;;;;;5052253;28;1277;-67
2020/12/19 05:35:22;;;;;;;;;;;22.60;50.30;;;;;;5052227;28;1369;-66
2020/12/19 05:38:01;;;;;;;;;;;22.60;50.30;;;;;;5048779;28;1772;-66
2020/12/19 05:40:27;;;;;;;;;;;22.60;50.30;;;;;;5073596;28;1070;-67
2020/12/19 05:42:53;;;;;;;;;;;22.60;50.20;;;;;;5072115;28;1973;-66
2020/12/19 05:45:19;;;;;;;;;;;22.60;50.20;;;;;;5072130;28;1351;-66
2020/12/19 05:47:44;;;;;;;;;;;22.60;50.30;;;;;;5073378;28;1330;-67
2020/12/19 05:50:10;;;;;;;;;;;22.60;50.30;;;;;;5073341;28;1331;-66
2020/12/19 05:52:36;;;;;;;;;;;22.70;50.30;;;;;;5053979;28;1310;-66
2020/12/19 05:55:02;;;;;;;;;;;22.60;50.30;;;;;;5056244;28;1528;-66
2020/12/19 05:57:27;;;;;;;;;;;22.60;50.30;;;;;;5053901;28;1357;-66
2020/12/19 05:59:53;;;;;;;;;;;22.60;50.30;;;;;;5053555;28;1292;-67
2020/12/19 06:02:19;;;;;;;;;;;22.60;50.30;;;;;;5052597;28;1957;-65
2020/12/19 06:04:45;;;;;;;;;;;22.60;50.40;;;;;;5051382;28;1303;-66
2020/12/19 06:07:10;;;;;;;;;;;22.60;50.40;;;;;;5051516;28;1323;-66
2020/12/19 06:09:36;;;;;;;;;;;22.60;50.50;;;;;;5052164;28;1295;-67
2020/12/19 06:12:24;;;;;;;;;;;22.50;50.50;;;;;;5052084;28;1801;-65
2020/12/19 06:14:50;;;;;;;;;;;22.50;50.50;;;;;;5039040;28;1355;-65
2020/12/19 06:17:39;;;;;;;;;;;22.50;50.60;;;;;;5070170;28;1353;-66
2020/12/19 06:20:04;;;;;;;;;;;22.50;50.70;;;;;;5058640;28;1411;-66
2020/12/19 06:22:30;;;;;;;;;;;22.50;50.70;;;;;;5058348;28;1962;-65
2020/12/19 06:24:56;;;;;;;;;;;22.40;50.70;;;;;;5066959;28;1363;-65
2020/12/19 06:27:22;;;;;;;;;;;22.40;51.40;;;;;;5051379;28;1344;-65
2020/12/19 06:29:47;;;;;;;;;;;22.40;50.80;;;;;;5051588;28;1297;-65
2020/12/19 06:32:22;;;;;;;;;;;22.40;50.90;;;;;;5055284;28;1454;-65
2020/12/19 06:35:02;;;;;;;;;;;22.40;50.90;;;;;;5051491;28;1341;-64
2020/12/19 06:37:27;;;;;;;;;;;22.40;51.00;;;;;;5051527;28;1367;-66
2020/12/19 06:40:12;;;;;;;;;;;22.30;51.00;;;;;;5055073;28;1342;-66
2020/12/19 06:42:37;;;;;;;;;;;22.30;51.00;;;;;;5054933;28;1971;-65
2020/12/19 06:45:19;;;;;;;;;;;22.30;51.10;;;;;;5054171;28;1305;-64
2020/12/19 06:47:44;;;;;;;;;;;22.30;51.10;;;;;;5053579;28;1259;-64
2020/12/19 06:50:09;;;;;;;;;;;22.30;51.20;;;;;;5063765;28;1273;-66
2020/12/19 06:52:35;;;;;;;;;;;22.30;51.20;;;;;;5052926;28;1287;-66
2020/12/19 06:55:00;;;;;;;;;;;22.20;51.20;;;;;;5054680;28;1299;-64
2020/12/19 06:57:32;;;;;;;;;;;22.20;51.30;;;;;;5065854;28;1895;-66
2020/12/19 07:00:16;;;;;;;;;;;22.20;51.30;;;;;;5051887;28;1283;-66
2020/12/19 07:02:52;;;;;;;;;;;22.20;47.10;;;;;;5062926;28;1906;-66
2020/12/19 07:05:18;;;;;;;;;;;22.00;45.10;;;;;;5050897;28;1344;-66
2020/12/19 07:07:44;;;;;;;;;;;21.90;42.00;;;;;;5066528;28;1300;-67
2020/12/19 07:10:09;;;;;;;;;;;21.80;39.40;;;;;;5051540;28;1322;-67
2020/12/19 07:12:35;;;;;;;;;;;21.70;40.10;;;;;;5050443;28;1359;-66
2020/12/19 07:15:01;;;;;;;;;;;21.60;41.00;;;;;;5055237;28;1218;-67
2020/12/19 07:17:26;;;;;;;;;;;21.60;42.00;;;;;;5051827;28;1411;-68
2020/12/19 07:20:01;;;;;;;;;;;21.50;42.60;;;;;;5057803;28;1358;-68
2020/12/19 07:22:27;;;;;;;;;;;21.60;43.30;;;;;;5050822;28;1955;-68
2020/12/19 07:24:55;;;;;;;;;;;21.50;43.80;;;;;;5051479;28;1305;-64
2020/12/19 07:27:23;;;;;;;;;;;21.60;44.30;;;;;;5051498;28;1347;-65
2020/12/19 07:29:49;;;;;;;;;;;21.60;44.70;;;;;;5066876;28;1342;-65
2020/12/19 07:32:15;;;;;;;;;;;21.60;45.20;;;;;;5068302;28;1321;-65
2020/12/19 07:34:40;;;;;;;;;;;21.60;45.50;;;;;;5066172;28;1592;-66
2020/12/19 07:37:06;;;;;;;;;;;21.60;45.80;;;;;;5059586;28;1557;-68
2020/12/19 07:39:31;;;;;;;;;;;21.60;46.10;;;;;;5071887;28;1855;-67
2020/12/19 07:41:59;;;;;;;;;;;21.60;46.30;;;;;;5067296;28;2155;-67
2020/12/19 07:44:25;;;;;;;;;;;21.60;46.60;;;;;;5058560;28;1254;-68
2020/12/19 07:46:53;;;;;;;;;;;21.60;46.80;;;;;;5054000;28;1391;-68
2020/12/19 07:49:24;;;;;;;;;;;21.60;47.00;;;;;;5059608;28;1299;-67
2020/12/19 07:51:50;;;;;;;;;;;21.60;47.10;;;;;;5062855;28;1257;-67
2020/12/19 07:54:16;;;;;;;;;;;21.60;47.40;;;;;;5055109;28;1310;-67
2020/12/19 07:56:42;;;;;;;;;;;21.50;47.40;;;;;;5061104;28;1677;-66
2020/12/19 07:59:07;;;;;;;;;;;21.60;47.60;;;;;;5054130;28;1311;-67
2020/12/19 08:01:37;;;;;;;;;;;21.50;47.70;;;;;;5054067;28;2312;-67
2020/12/19 08:04:03;;;;;;;;;;;21.50;47.80;;;;;;5053728;28;1361;-67
2020/12/19 08:06:41;;;;;;;;;;;21.60;48.00;;;;;;5055378;28;1451;-66
2020/12/19 08:09:06;;;;;;;;;;;21.50;48.30;;;;;;5055483;28;1326;-67
2020/12/19 08:11:52;;;;;;;;;;;21.50;48.40;;;;;;5055406;28;1618;-67
2020/12/19 08:14:21;;;;;;;;;;;21.60;48.50;;;;;;5054597;28;1514;-66
2020/12/19 08:16:46;;;;;;;;;;;21.60;48.70;;;;;;5052883;28;1366;-66
2020/12/19 08:19:12;;;;;;;;;;;21.60;48.70;;;;;;5055575;28;1307;-66
2020/12/19 08:21:38;;;;;;;;;;;21.70;48.90;;;;;;5057401;28;1902;-67
2020/12/19 08:24:04;;;;;;;;;;;21.80;49.00;;;;;;5053329;28;1502;-66
2020/12/19 08:26:31;;;;;;;;;;;21.80;49.00;;;;;;5067381;28;1394;-63
2020/12/19 08:29:03;;;;;;;;;;;21.90;49.00;;;;;;5063322;28;1659;-64
2020/12/19 08:31:29;;;;;;;;;;;22.00;49.00;;;;;;5058144;28;1388;-66
2020/12/19 08:33:54;;;;;;;;;;;22.10;49.10;;;;;;5053842;28;1618;-67
2020/12/19 08:36:20;;;;;;;;;;;22.20;49.10;;;;;;5053650;28;1396;-65
2020/12/19 08:38:45;;;;;;;;;;;22.20;49.00;;;;;;5054835;28;1651;-67
2020/12/19 08:41:20;;;;;;;;;;;22.30;49.00;;;;;;5054521;28;1953;-67
2020/12/19 08:43:45;;;;;;;;;;;22.30;48.90;;;;;;5053678;28;1356;-67
2020/12/19 08:46:12;;;;;;;;;;;22.30;48.90;;;;;;5053201;28;1727;-66
2020/12/19 08:48:38;;;;;;;;;;;22.40;49.00;;;;;;5054950;28;1649;-67
2020/12/19 08:51:07;;;;;;;;;;;22.40;49.00;;;;;;5066094;28;1280;-68
2020/12/19 08:53:33;;;;;;;;;;;22.40;49.00;;;;;;5053977;28;1344;-67
2020/12/19 08:56:10;;;;;;;;;;;22.40;49.10;;;;;;5061726;28;1396;-67
2020/12/19 08:58:35;;;;;;;;;;;22.50;49.20;;;;;;5053318;28;1411;-68
2020/12/19 09:01:11;;;;;;;;;;;22.50;49.40;;;;;;5072777;28;1902;-66
2020/12/19 09:03:36;;;;;;;;;;;22.50;49.50;;;;;;5059730;28;1663;-68
2020/12/19 09:06:02;;;;;;;;;;;22.50;49.60;;;;;;5052919;28;1694;-66
2020/12/19 09:08:32;;;;;;;;;;;22.40;49.60;;;;;;5053135;28;1412;-67
2020/12/19 09:10:57;;;;;;;;;;;22.40;49.70;;;;;;5052832;28;1700;-67
2020/12/19 09:13:22;;;;;;;;;;;22.40;49.80;;;;;;5052972;28;1338;-65
2020/12/19 09:15:49;;;;;;;;;;;22.40;49.90;;;;;;5053985;28;1385;-64
2020/12/19 09:18:33;;;;;;;;;;;22.40;49.90;;;;;;5053008;28;1500;-67
2020/12/19 09:20:59;;;;;;;;;;;22.40;50.00;;;;;;5060765;28;1373;-67
2020/12/19 09:23:25;;;;;;;;;;;22.40;50.10;;;;;;5052051;28;1438;-66
2020/12/19 09:25:51;;;;;;;;;;;22.40;50.50;;;;;;5052798;28;1729;-67
2020/12/19 09:28:16;;;;;;;;;;;22.40;50.40;;;;;;5052848;28;1644;-65
2020/12/19 09:30:42;;;;;;;;;;;22.40;50.50;;;;;;5052976;28;1698;-65
2020/12/19 09:33:08;;;;;;;;;;;22.40;50.50;;;;;;5052691;28;1718;-64
2020/12/19 09:35:33;;;;;;;;;;;22.40;50.60;;;;;;5051826;28;1401;-65
2020/12/19 09:37:59;;;;;;;;;;;22.30;50.60;;;;;;5066650;23;1711;-63
2020/12/19 09:40:25;;;;;;;;;;;22.30;50.80;;;;;;5087286;28;1497;-63
2020/12/19 09:42:50;;;;;;;;;;;22.30;50.80;;;;;;5093590;28;1917;-63
2020/12/19 09:45:15;;;;;;;;;;;22.30;51.40;;;;;;5074681;28;1385;-63
2020/12/19 09:47:41;;;;;;;;;;;22.30;51.60;;;;;;5093379;28;1329;-66
2020/12/19 09:50:07;;;;;;;;;;;22.30;51.70;;;;;;5093810;28;1193;-65
2020/12/19 09:52:33;;;;;;;;;;;22.30;51.80;;;;;;5093484;28;1311;-66
2020/12/19 09:54:58;;;;;;;;;;;22.30;51.80;;;;;;5092702;28;1268;-66
2020/12/19 09:57:24;;;;;;;;;;;22.20;51.80;;;;;;5093309;28;1440;-66
2020/12/19 09:59:49;;;;;;;;;;;22.20;51.90;;;;;;5075450;28;1317;-67
2020/12/19 10:02:15;;;;;;;;;;;22.20;52.00;;;;;;5074859;28;1961;-66
2020/12/19 10:04:40;;;;;;;;;;;22.20;52.00;;;;;;5074434;28;1326;-67
2020/12/19 10:07:06;;;;;;;;;;;22.20;52.10;;;;;;5093219;28;1302;-66
2020/12/19 10:09:31;;;;;;;;;;;22.20;52.10;;;;;;5093315;28;1355;-66
2020/12/19 10:11:57;;;;;;;;;;;22.20;52.20;;;;;;5093166;28;1358;-66
2020/12/19 10:14:22;;;;;;;;;;;22.20;52.30;;;;;;5092904;28;1290;-66
2020/12/19 10:16:48;;;;;;;;;;;22.10;52.30;;;;;;5092618;28;1291;-66
2020/12/19 10:19:13;;;;;;;;;;;22.10;52.50;;;;;;5092905;28;1303;-63
2020/12/19 10:21:39;;;;;;;;;;;22.10;52.50;;;;;;5092982;28;1957;-63
2020/12/19 10:24:04;;;;;;;;;;;22.10;52.20;;;;;;5092552;28;1247;-64
2020/12/19 10:26:30;;;;;;;;;;;22.10;52.30;;;;;;5092856;28;1298;-63
2020/12/19 10:28:55;;;;;;;;;;;22.10;52.40;;;;;;5092938;28;1313;-63
2020/12/19 10:31:25;;;;;;;;;;;22.10;52.30;;;;;;5092225;28;1327;-62
2020/12/19 10:33:51;;;;;;;;;;;22.10;52.20;;;;;;5092735;28;1323;-64
2020/12/19 10:36:16;;;;;;;;;;;22.20;52.30;;;;;;5074583;28;1140;-64
2020/12/19 10:38:42;;;;;;;;;;;22.20;52.40;;;;;;5092990;28;1341;-63
2020/12/19 10:41:10;;;;;;;;;;;22.20;52.40;;;;;;5092429;28;1906;-63
2020/12/19 10:43:36;;;;;;;;;;;22.20;52.50;;;;;;5074565;28;1370;-63
2020/12/19 10:46:01;;;;;;;;;;;22.20;52.60;;;;;;5073770;28;1459;-63
2020/12/19 10:48:27;;;;;;;;;;;22.30;52.80;;;;;;5074588;28;1311;-63
2020/12/19 10:50:52;;;;;;;;;;;22.30;53.40;;;;;;5074367;28;1233;-64
2020/12/19 10:53:18;;;;;;;;;;;22.30;53.10;;;;;;5092167;28;1359;-63
2020/12/19 10:55:43;;;;;;;;;;;22.30;53.00;;;;;;5092640;28;1371;-63
2020/12/19 10:58:08;;;;;;;;;;;22.40;53.00;;;;;;5092050;28;1296;-64
2020/12/19 11:00:34;;;;;;;;;;;22.30;52.90;;;;;;5092411;28;1295;-63
2020/12/19 11:02:59;;;;;;;;;;;22.40;52.90;;;;;;5092527;28;1949;-63
2020/12/19 11:05:25;;;;;;;;;;;22.40;52.80;;;;;;5092039;28;1341;-63
2020/12/19 11:07:50;;;;;;;;;;;22.40;52.70;;;;;;5092420;28;1295;-63
2020/12/19 11:10:16;;;;;;;;;;;22.40;52.70;;;;;;5092299;28;1266;-63
2020/12/19 11:12:41;;;;;;;;;;;22.40;52.70;;;;;;5092417;28;1322;-63
2020/12/19 11:15:07;;;;;;;;;;;22.40;52.70;;;;;;5077247;28;1255;-64
2020/12/19 11:17:32;;;;;;;;;;;22.40;52.80;;;;;;5096779;28;1404;-63
2020/12/19 11:19:58;;;;;;;;;;;22.40;52.80;;;;;;5095557;28;1370;-66
2020/12/19 11:22:23;;;;;;;;;;;22.40;52.90;;;;;;5096589;28;1893;-67
2020/12/19 11:24:49;;;;;;;;;;;22.40;52.90;;;;;;5096012;28;1305;-66
2020/12/19 11:27:14;;;;;;;;;;;22.40;52.80;;;;;;5096198;28;1314;-66
2020/12/19 11:29:40;;;;;;;;;;;22.40;53.00;;;;;;5096139;28;1316;-66
2020/12/19 11:32:06;;;;;;;;;;;22.30;53.00;;;;;;5095865;28;1266;-66
2020/12/19 11:34:33;;;;;;;;;;;22.30;53.00;;;;;;5095991;28;1172;-67
2020/12/19 11:36:59;;;;;;;;;;;22.30;53.10;;;;;;5096006;28;1286;-66
2020/12/19 11:39:25;;;;;;;;;;;22.30;53.10;;;;;;5095876;28;1433;-66
2020/12/19 11:41:50;;;;;;;;;;;22.30;53.00;;;;;;5096253;28;1955;-66
2020/12/19 11:44:15;;;;;;;;;;;22.30;53.20;;;;;;5095139;28;1283;-66
2020/12/19 11:46:43;;;;;;;;;;;22.30;54.20;;;;;;5095939;28;1304;-65
2020/12/19 11:49:09;;;;;;;;;;;22.30;54.00;;;;;;5095581;28;1318;-66
2020/12/19 11:51:34;;;;;;;;;;;22.30;53.80;;;;;;5096369;28;1365;-65
2020/12/19 11:54:01;;;;;;;;;;;22.30;53.80;;;;;;5095339;28;1305;-65
2020/12/19 11:56:26;;;;;;;;;;;22.20;53.60;;;;;;5077750;28;1131;-65
2020/12/19 11:58:52;;;;;;;;;;;22.30;53.50;;;;;;5095627;28;1359;-65
2020/12/19 12:01:17;;;;;;;;;;;22.30;53.40;;;;;;5077225;28;1906;-67
2020/12/19 12:03:43;;;;;;;;;;;22.30;53.30;;;;;;5077117;28;1354;-65
2020/12/19 12:06:08;;;;;;;;;;;22.30;53.20;;;;;;5094627;28;1286;-64
2020/12/19 12:08:34;;;;;;;;;;;22.30;53.20;;;;;;5095647;28;1294;-65
2020/12/19 12:10:59;;;;;;;;;;;22.30;53.10;;;;;;5077579;28;1338;-64
2020/12/19 12:13:25;;;;;;;;;;;22.30;54.00;;;;;;5095517;28;1313;-66
2020/12/19 12:15:50;;;;;;;;;;;22.30;53.40;;;;;;5095002;28;1067;-64
2020/12/19 12:18:16;;;;;;;;;;;22.30;53.40;;;;;;5077343;28;1309;-64
2020/12/19 12:20:41;;;;;;;;;;;22.40;53.40;;;;;;5077299;28;1147;-64
2020/12/19 12:23:06;;;;;;;;;;;22.40;53.40;;;;;;5094954;28;1957;-64
2020/12/19 12:25:32;;;;;;;;;;;22.40;53.40;;;;;;5094641;28;1342;-65
2020/12/19 12:27:58;;;;;;;;;;;22.30;53.30;;;;;;5094679;28;1406;-64
2020/12/19 12:30:23;;;;;;;;;;;22.40;53.40;;;;;;5095489;28;1259;-64
2020/12/19 12:32:49;;;;;;;;;;;22.40;53.40;;;;;;5076793;28;1355;-64
2020/12/19 12:35:14;;;;;;;;;;;22.30;53.40;;;;;;5094182;28;1448;-66
2020/12/19 12:37:40;;;;;;;;;;;22.30;53.70;;;;;;5076639;28;1318;-65
2020/12/19 12:40:05;;;;;;;;;;;22.30;53.80;;;;;;5095376;28;1373;-61
2020/12/19 12:42:31;;;;;;;;;;;22.30;53.60;;;;;;5094869;28;1961;-62
2020/12/19 12:44:56;;;;;;;;;;;22.30;54.00;;;;;;5094352;28;1317;-62
2020/12/19 12:47:21;;;;;;;;;;;22.30;54.10;;;;;;5094825;28;1291;-62
2020/12/19 12:49:47;;;;;;;;;;;22.20;54.00;;;;;;5094887;28;1273;-62
2020/12/19 12:52:12;;;;;;;;;;;22.20;54.10;;;;;;5095067;28;1275;-65
2020/12/19 12:54:38;;;;;;;;;;;22.20;54.10;;;;;;5076100;28;1300;-62
2020/12/19 12:57:04;;;;;;;;;;;22.20;54.10;;;;;;5059817;28;1856;-62
2020/12/19 12:59:29;;;;;;;;;;;22.20;54.20;;;;;;5085148;28;1978;-62
2020/12/19 13:01:54;;;;;;;;;;;22.20;54.20;;;;;;5069165;28;1906;-65
2020/12/19 13:04:20;;;;;;;;;;;22.20;54.50;;;;;;5092647;28;1687;-63
2020/12/19 13:06:45;;;;;;;;;;;22.20;53.70;;;;;;5077274;28;1212;-63
2020/12/19 13:09:11;;;;;;;;;;;22.20;49.40;;;;;;5076233;28;1410;-63
2020/12/19 13:11:36;;;;;;;;;;;22.10;46.40;;;;;;5094373;28;1325;-64
2020/12/19 13:14:02;;;;;;;;;;;22.00;45.00;;;;;;5094237;28;1266;-63
2020/12/19 13:16:29;;;;;;;;;;;21.90;44.00;;;;;;5093850;28;1357;-63
2020/12/19 13:18:54;;;;;;;;;;;21.80;43.00;;;;;;5055912;28;1334;-63
2020/12/19 13:21:20;;;;;;;;;;;21.80;42.30;;;;;;5070013;28;1902;-65
2020/12/19 13:23:45;;;;;;;;;;;21.70;41.90;;;;;;5083715;28;1363;-63
2020/12/19 13:26:15;;;;;;;;;;;21.60;41.50;;;;;;5083496;28;1228;-63
2020/12/19 13:28:40;;;;;;;;;;;21.60;41.30;;;;;;5065453;28;1406;-63
2020/12/19 13:31:06;;;;;;;;;;;21.50;41.00;;;;;;5083553;28;1358;-65
2020/12/19 13:33:31;;;;;;;;;;;21.40;40.70;;;;;;5074997;28;1369;-64
2020/12/19 13:35:57;;;;;;;;;;;21.40;40.60;;;;;;5093175;28;1285;-65
2020/12/19 13:38:22;;;;;;;;;;;21.30;40.30;;;;;;5075408;28;1425;-64
2020/12/19 13:40:48;;;;;;;;;;;21.30;40.00;;;;;;5083309;28;2078;-65
2020/12/19 13:43:13;;;;;;;;;;;21.20;40.00;;;;;;5093532;28;1913;-66
2020/12/19 13:45:39;;;;;;;;;;;21.10;39.80;;;;;;5093868;28;1347;-64
2020/12/19 13:48:04;;;;;;;;;;;21.10;39.80;;;;;;5071774;28;1896;-65
2020/12/19 13:50:30;;;;;;;;;;;21.10;39.70;;;;;;5092039;28;1328;-64
2020/12/19 13:52:55;;;;;;;;;;;21.00;39.50;;;;;;5070373;28;1371;-66
2020/12/19 13:55:21;;;;;;;;;;;21.00;39.20;;;;;;5083055;28;1134;-64
2020/12/19 13:57:46;;;;;;;;;;;21.00;39.20;;;;;;5092384;28;1283;-66
2020/12/19 14:00:12;;;;;;;;;;;20.90;39.20;;;;;;5092581;28;1357;-65
2020/12/19 14:02:38;;;;;;;;;;;20.80;39.00;;;;;;5091800;28;1906;-64
2020/12/19 14:05:04;;;;;;;;;;;20.80;39.00;;;;;;5073880;28;1374;-65
2020/12/19 14:07:30;;;;;;;;;;;20.80;38.90;;;;;;5074136;28;1301;-64
2020/12/19 14:09:55;;;;;;;;;;;20.70;38.90;;;;;;5091683;28;1412;-65
2020/12/19 14:12:21;;;;;;;;;;;20.70;38.80;;;;;;5091486;28;1284;-63
2020/12/19 14:14:46;;;;;;;;;;;20.70;38.80;;;;;;5073670;28;1322;-64
2020/12/19 14:17:12;;;;;;;;;;;20.70;38.70;;;;;;5091986;28;1355;-67
2020/12/19 14:19:37;;;;;;;;;;;20.60;38.80;;;;;;5092063;28;1283;-64
2020/12/19 14:22:03;;;;;;;;;;;20.60;38.80;;;;;;5091695;28;1967;-63
2020/12/19 14:24:28;;;;;;;;;;;20.60;38.90;;;;;;5091611;28;1204;-64
2020/12/19 14:26:54;;;;;;;;;;;20.50;38.70;;;;;;5091801;28;1263;-64